Airfield :
LOGIN :

Register | Disclaimer

   EN    FR    IT 

 










Legend :    VFR   Marginal VFR   IFR   Intensive IFR   Very Intensive IFR
Visi :
Ceiling :
>= 8 km
>= 3000ft
5 to 8 km
1000 to 3000 ft
1500m to 5 km
500 to 1000 ft
800 to 1500m
200 to 500 ft
< 800m
< 200 ft
Symbols :   Thunderstorms  Fog  Heavy snow  Heavy precipitations  Wind > 20 kt
SIGMETs :     Misc.  Thunderstorms  Icing  Turbulence  Mountain Waves  Volcanic Ashes







- Airport Elevation : 405 ft
- IATA code : ODH


EGVO - RAF Odiham

CURRENT METAR :
  • 191050Z 27006KT 7000 -RADZ BKN004 BKN010 08/08 Q1017 YLO2 BECMG BKN005 YLO1

EXPIRED METARs :
  • 190950Z 25006KT 7000 -RADZ BKN003 07/07 Q1017 YLO2 TEMPO 3000 -DZ YLO2
  • 190850Z 25007KT 3000 -RADZ OVC003 07/07 Q1017 YLO2 TEMPO 2000 BKN002 AMB

TAF AMD TAF EGVO
Valid from the 19 at 09:00 until the 19 at 21:00 UTC


190929Z 1909/1921 28005KT 6000 BR BKN005
TEMPO 1909/1918 4000 -RADZ BKN004
PROB30
TEMPO 1909/1912 1500 RADZ BKN002
PROB30
TEMPO 1914/1921 9999 NSW FEW006 BKN008
No reported NOTAMs for that airfield.



MET'MAP, your aeronautical weather chart ! - Copyright ORBIFLY December 2007 - Disclaimer

ORBIFLY MET'MAP TEAM :

Programming & Development : Alexandra Zaïnal
Concept & Development : Baudouin d'Aumeries
Co-Development & Prog : Marc-Olivier Méhu
Technical & hardware support : Manuel Goepfert

Contact : metmap@orbifly.com




SOURCES & CREDITS :

   NOAA